createdAt,value
2023-09-05T00:01:05.613Z,17.88
2023-09-05T00:03:12.846Z,20.17
2023-09-05T00:05:21.562Z,18.10
2023-09-05T00:07:30.230Z,16.60
2023-09-05T00:09:38.492Z,19.33
2023-09-05T00:11:45.409Z,22.90
2023-09-05T00:13:54.228Z,19.27
2023-09-05T00:16:02.036Z,19.58
2023-09-05T00:18:09.796Z,19.13
2023-09-05T00:20:18.027Z,17.52
2023-09-05T00:22:25.263Z,17.20
2023-09-05T00:24:33.575Z,16.40
2023-09-05T00:26:40.647Z,15.60
2023-09-05T00:28:47.573Z,13.98
2023-09-05T00:30:56.646Z,16.27
2023-09-05T00:33:03.846Z,13.75
2023-09-05T00:35:13.526Z,18.20
2023-09-05T00:37:24.592Z,18.77
2023-09-05T00:39:30.656Z,20.40
2023-09-05T00:41:37.526Z,15.82
2023-09-05T00:43:45.832Z,15.43
2023-09-05T00:45:59.031Z,17.42
2023-09-05T00:48:09.462Z,14.02
2023-09-05T00:50:19.513Z,20.00
2023-09-05T00:52:28.228Z,12.55
2023-09-05T00:54:35.253Z,13.82
2023-09-05T00:56:42.764Z,13.23
2023-09-05T00:58:48.696Z,12.90
2023-09-05T01:00:58.850Z,13.38
2023-09-05T01:03:05.813Z,12.05
2023-09-05T01:05:13.707Z,13.07
2023-09-05T01:07:30.787Z,11.77
2023-09-05T01:09:46.772Z,10.45
2023-09-05T01:11:53.340Z,12.10
2023-09-05T01:14:00.529Z,11.98
2023-09-05T01:16:10.683Z,11.40
2023-09-05T01:18:17.922Z,10.93
2023-09-05T01:20:30.742Z,13.68
2023-09-05T01:22:43.886Z,12.50
2023-09-05T01:24:53.596Z,9.98
2023-09-05T01:27:01.407Z,10.18
2023-09-05T01:29:08.152Z,10.35
2023-09-05T01:31:17.814Z,9.38
2023-09-05T01:33:25.013Z,11.02
2023-09-05T01:35:32.110Z,10.75
2023-09-05T01:37:39.286Z,13.27
2023-09-05T01:39:45.041Z,11.20
2023-09-05T01:41:54.475Z,11.07
2023-09-05T01:44:01.344Z,12.23
2023-09-05T01:46:09.214Z,12.00
2023-09-05T01:48:16.658Z,10.77
2023-09-05T01:50:24.166Z,11.55
2023-09-05T01:52:29.760Z,10.98
2023-09-05T01:54:36.890Z,10.77
2023-09-05T01:56:43.613Z,11.82
2023-09-05T01:58:52.585Z,10.75
2023-09-05T02:00:59.583Z,9.98
2023-09-05T02:03:07.000Z,10.48
2023-09-05T02:05:14.961Z,10.13
2023-09-05T02:07:22.284Z,8.93
2023-09-05T02:09:29.778Z,9.98
2023-09-05T02:11:37.884Z,9.77
2023-09-05T02:13:44.699Z,9.27
2023-09-05T02:15:53.672Z,9.18
2023-09-05T02:18:04.362Z,10.93
2023-09-05T02:20:12.597Z,10.13
2023-09-05T02:22:19.522Z,11.10
2023-09-05T02:24:28.602Z,10.57
2023-09-05T02:26:35.573Z,8.63
2023-09-05T02:28:42.657Z,9.13
2023-09-05T02:30:49.673Z,8.48
2023-09-05T02:32:59.049Z,10.02
2023-09-05T02:35:06.245Z,9.20
2023-09-05T02:37:14.197Z,11.20
2023-09-05T02:39:22.503Z,11.02
2023-09-05T02:41:29.953Z,9.40
2023-09-05T02:43:38.198Z,10.27
2023-09-05T02:45:54.190Z,10.68
2023-09-05T02:48:03.090Z,8.85
2023-09-05T02:50:11.520Z,9.95
2023-09-05T02:52:18.676Z,10.32
2023-09-05T02:54:26.085Z,22.25
2023-09-05T02:56:33.330Z,19.38
2023-09-05T02:58:40.450Z,21.95
2023-09-05T03:00:49.989Z,44.90
2023-09-05T03:02:58.575Z,32.13
2023-09-05T03:05:07.936Z,28.85
2023-09-05T03:07:15.216Z,23.55
2023-09-05T03:09:22.349Z,23.30
2023-09-05T03:11:29.885Z,22.23
2023-09-05T03:13:36.914Z,10.75
2023-09-05T03:15:44.213Z,11.65
2023-09-05T03:17:51.104Z,14.02
2023-09-05T03:19:59.796Z,10.38
2023-09-05T03:22:08.972Z,10.38
2023-09-05T03:24:20.145Z,11.10
2023-09-05T03:26:27.239Z,11.68
2023-09-05T03:28:43.473Z,10.02
2023-09-05T03:30:56.793Z,9.70
2023-09-05T03:33:04.717Z,12.77
2023-09-05T03:35:12.387Z,10.93
2023-09-05T03:37:21.310Z,13.35
2023-09-05T03:39:28.290Z,11.77
2023-09-05T03:41:35.884Z,11.40
2023-09-05T03:43:42.814Z,14.85
2023-09-05T03:45:51.054Z,20.60
2023-09-05T03:48:01.488Z,16.20
2023-09-05T03:50:10.594Z,16.08
2023-09-05T03:52:17.520Z,18.77
2023-09-05T03:54:26.596Z,15.13
2023-09-05T03:56:33.729Z,16.00
2023-09-05T03:58:41.885Z,13.23
2023-09-05T04:00:48.789Z,20.27
2023-09-05T04:02:54.837Z,10.82
2023-09-05T04:05:01.839Z,10.18
2023-09-05T04:07:10.145Z,9.15
2023-09-05T04:09:17.076Z,8.88
2023-09-05T04:11:26.093Z,10.32
2023-09-05T04:13:33.214Z,10.75
2023-09-05T04:15:42.338Z,9.00
2023-09-05T04:17:49.385Z,11.07
2023-09-05T04:19:57.744Z,10.88
2023-09-05T04:22:05.196Z,12.48
2023-09-05T04:24:12.830Z,10.00
2023-09-05T04:26:20.820Z,10.13
2023-09-05T04:28:31.240Z,8.93
2023-09-05T04:30:38.919Z,8.77
2023-09-05T04:32:46.208Z,7.78
2023-09-05T04:34:56.205Z,7.55
2023-09-05T04:37:03.437Z,7.05
2023-09-05T04:39:10.466Z,7.50
2023-09-05T04:41:17.748Z,6.35
2023-09-05T04:43:25.206Z,5.25
2023-09-05T04:45:34.367Z,5.38
2023-09-05T04:47:42.097Z,6.03
2023-09-05T04:49:48.129Z,5.95
2023-09-05T04:51:55.038Z,8.65
2023-09-05T04:54:02.178Z,6.43
2023-09-05T04:56:09.258Z,7.63
2023-09-05T04:58:16.516Z,6.53
2023-09-05T05:00:25.608Z,7.80
2023-09-05T05:02:37.094Z,7.13
2023-09-05T05:04:44.404Z,9.10
2023-09-05T05:06:51.456Z,7.45
2023-09-05T05:08:58.644Z,6.53
2023-09-05T05:11:08.219Z,6.55
2023-09-05T05:13:15.422Z,8.07
2023-09-05T05:15:22.473Z,8.80
2023-09-05T05:17:29.805Z,8.30
2023-09-05T05:19:38.539Z,7.32
2023-09-05T05:21:45.772Z,6.32
2023-09-05T05:23:52.850Z,5.93
2023-09-05T05:26:03.872Z,6.57
2023-09-05T05:28:11.054Z,5.85
2023-09-05T05:30:19.196Z,5.95
2023-09-05T05:32:26.136Z,6.32
2023-09-05T05:34:36.643Z,7.43
2023-09-05T05:36:43.569Z,7.18
2023-09-05T05:38:50.870Z,7.28
2023-09-05T05:40:59.875Z,8.43
2023-09-05T05:43:07.315Z,6.72
2023-09-05T05:45:15.212Z,7.80
2023-09-05T05:47:22.855Z,5.78
2023-09-05T05:49:31.676Z,8.95
2023-09-05T05:51:41.833Z,7.38
2023-09-05T05:53:49.005Z,7.53
2023-09-05T05:55:56.137Z,8.80
2023-09-05T05:58:03.266Z,8.00
2023-09-05T06:00:11.741Z,9.07
2023-09-05T06:02:21.323Z,8.50
2023-09-05T06:04:28.623Z,8.70
2023-09-05T06:06:35.937Z,7.93
2023-09-05T06:08:45.134Z,8.15
2023-09-05T06:10:52.244Z,9.57
2023-09-05T06:12:59.511Z,9.85
2023-09-05T06:15:06.816Z,11.30
2023-09-05T06:17:13.944Z,11.70
2023-09-05T06:19:20.463Z,11.40
2023-09-05T06:21:27.442Z,10.27
2023-09-05T06:23:37.279Z,11.20
2023-09-05T06:25:45.929Z,10.65
2023-09-05T06:27:53.282Z,13.48
2023-09-05T06:30:00.152Z,10.32
2023-09-05T06:32:07.749Z,9.45
2023-09-05T06:34:14.625Z,9.55
2023-09-05T06:36:22.011Z,10.85
2023-09-05T06:38:30.422Z,13.45
2023-09-05T06:40:37.601Z,10.32
2023-09-05T06:42:46.372Z,10.95
2023-09-05T06:44:53.809Z,11.70
2023-09-05T06:46:59.412Z,12.73
2023-09-05T06:49:07.206Z,12.13
2023-09-05T06:51:14.074Z,11.93
2023-09-05T06:53:21.262Z,12.98
2023-09-05T06:55:30.803Z,13.40
2023-09-05T06:57:37.992Z,11.93
2023-09-05T06:59:46.649Z,9.02
2023-09-05T07:01:53.972Z,9.73
2023-09-05T07:04:01.159Z,10.23
2023-09-05T07:06:08.338Z,12.95
2023-09-05T07:08:15.275Z,10.10
2023-09-05T07:10:22.496Z,12.57
2023-09-05T07:12:30.201Z,13.35
2023-09-05T07:14:37.508Z,10.77
2023-09-05T07:16:46.296Z,10.10
2023-09-05T07:18:53.529Z,10.90
2023-09-05T07:21:00.505Z,10.25
2023-09-05T07:23:07.941Z,10.70
2023-09-05T07:25:15.430Z,9.90
2023-09-05T07:27:22.558Z,11.25
2023-09-05T07:29:30.152Z,13.23
2023-09-05T07:31:37.115Z,10.85
2023-09-05T07:33:46.886Z,10.82
2023-09-05T07:35:53.745Z,10.02
2023-09-05T07:38:01.287Z,10.88
2023-09-05T07:40:09.449Z,15.60
2023-09-05T07:42:16.722Z,10.98
2023-09-05T07:44:23.702Z,14.88
2023-09-05T07:46:31.085Z,12.43
2023-09-05T07:48:36.682Z,15.00
2023-09-05T07:50:45.722Z,12.55
2023-09-05T07:52:52.888Z,17.50
2023-09-05T07:55:00.080Z,13.00
2023-09-05T07:57:07.107Z,9.35
2023-09-05T07:59:14.229Z,10.75
2023-09-05T08:01:22.152Z,10.60
2023-09-05T08:03:29.774Z,10.00
2023-09-05T08:05:36.847Z,9.65
2023-09-05T08:07:45.723Z,11.10
2023-09-05T08:09:52.644Z,10.63
2023-09-05T08:11:59.827Z,9.50
2023-09-05T08:14:06.804Z,9.57
2023-09-05T08:16:14.315Z,8.77
2023-09-05T08:18:21.669Z,9.38
2023-09-05T08:20:29.120Z,10.43
2023-09-05T08:22:36.052Z,9.13
2023-09-05T08:24:44.861Z,10.43
2023-09-05T08:26:51.848Z,9.32
2023-09-05T08:28:59.019Z,11.10
2023-09-05T08:31:17.565Z,8.00
2023-09-05T08:33:26.254Z,8.40
2023-09-05T08:35:32.445Z,9.30
2023-09-05T08:37:39.731Z,7.50
2023-09-05T08:39:48.497Z,7.22
2023-09-05T08:41:55.881Z,8.73
2023-09-05T08:44:03.169Z,7.85
2023-09-05T08:46:09.376Z,9.32
2023-09-05T08:48:16.645Z,9.65
2023-09-05T08:50:24.864Z,8.07
2023-09-05T08:52:35.891Z,9.35
2023-09-05T08:54:44.449Z,6.45
2023-09-05T08:56:53.168Z,7.20
2023-09-05T08:59:00.820Z,7.45
2023-09-05T09:01:07.862Z,5.38
2023-09-05T09:03:15.412Z,5.88
2023-09-05T09:05:22.462Z,5.45
2023-09-05T09:07:30.162Z,5.70
2023-09-05T09:09:38.613Z,5.70
2023-09-05T09:11:45.892Z,5.15
2023-09-05T09:14:02.037Z,7.63
2023-09-05T09:16:09.741Z,4.50
2023-09-05T09:18:18.494Z,4.13
2023-09-05T09:20:30.547Z,6.65
2023-09-05T09:22:41.260Z,4.47
2023-09-05T09:24:49.313Z,5.25
2023-09-05T09:26:58.190Z,5.40
2023-09-05T09:29:12.395Z,4.07
2023-09-05T09:31:20.989Z,6.10
2023-09-05T09:33:27.845Z,5.55
2023-09-05T09:35:34.744Z,3.92
2023-09-05T09:37:41.876Z,3.92
2023-09-05T09:39:52.829Z,3.40
2023-09-05T09:42:02.892Z,3.38
2023-09-05T09:44:11.002Z,5.22
2023-09-05T09:46:18.237Z,3.72
2023-09-05T09:48:28.479Z,3.28
2023-09-05T09:50:36.025Z,3.25
2023-09-05T09:52:48.006Z,7.03
2023-09-05T09:54:59.349Z,3.78
2023-09-05T09:57:08.889Z,4.25
2023-09-05T09:59:20.914Z,3.65
2023-09-05T10:03:34.589Z,4.03
2023-09-05T10:05:43.600Z,5.47
2023-09-05T10:07:53.108Z,3.92
2023-09-05T10:10:00.650Z,4.85
2023-09-05T10:12:09.498Z,7.53
2023-09-05T10:14:20.574Z,3.13
2023-09-05T10:16:28.990Z,3.25
2023-09-05T10:18:40.308Z,4.78
2023-09-05T10:20:49.031Z,5.22
2023-09-05T10:22:56.566Z,6.07
2023-09-05T10:25:04.926Z,4.63
2023-09-05T10:27:12.004Z,4.95
2023-09-05T10:29:45.735Z,4.80
2023-09-05T10:31:53.898Z,4.85
2023-09-05T10:34:02.786Z,5.50
2023-09-05T10:36:10.018Z,4.95
2023-09-05T10:38:17.251Z,4.97
2023-09-05T10:40:37.617Z,6.20
2023-09-05T10:42:52.606Z,5.68
2023-09-05T10:45:03.123Z,4.65
2023-09-05T10:47:27.750Z,4.53
2023-09-05T10:49:34.682Z,6.07
2023-09-05T10:52:13.540Z,6.80
2023-09-05T10:54:34.312Z,7.63
2023-09-05T10:56:45.890Z,7.10
2023-09-05T11:01:03.760Z,9.90
2023-09-05T11:03:16.511Z,5.32
2023-09-05T11:05:25.888Z,5.03
2023-09-05T11:07:43.508Z,10.20
2023-09-05T11:09:56.836Z,5.85
2023-09-05T11:12:10.262Z,4.57
2023-09-05T11:14:17.187Z,5.13
2023-09-05T11:16:26.319Z,5.60
2023-09-05T11:18:33.222Z,5.25
2023-09-05T11:20:42.624Z,5.63
2023-09-05T11:22:49.656Z,5.72
2023-09-05T11:25:00.433Z,5.05
2023-09-05T11:27:08.934Z,6.43
2023-09-05T11:29:18.624Z,4.95
2023-09-05T11:31:27.422Z,6.35
2023-09-05T11:33:37.184Z,4.95
2023-09-05T11:35:44.161Z,4.82
2023-09-05T11:38:00.506Z,5.75
2023-09-05T11:40:20.034Z,7.43
2023-09-05T11:42:33.121Z,5.65
2023-09-05T11:44:41.762Z,5.20
2023-09-05T11:46:50.773Z,7.38
2023-09-05T11:49:02.915Z,5.18
2023-09-05T11:51:11.639Z,7.97
2023-09-05T11:53:22.478Z,6.63
2023-09-05T11:55:30.838Z,6.68
2023-09-05T11:57:38.477Z,6.20
2023-09-05T11:59:45.912Z,7.55
2023-09-05T12:01:54.762Z,9.85
2023-09-05T12:04:05.952Z,9.02
2023-09-05T12:06:13.021Z,7.93
2023-09-05T12:08:35.325Z,7.95
2023-09-05T12:10:52.960Z,8.73
2023-09-05T12:13:03.813Z,8.55
2023-09-05T12:15:11.424Z,8.57
2023-09-05T12:17:22.492Z,7.85
2023-09-05T12:19:32.720Z,13.10
2023-09-05T12:21:47.957Z,9.13
2023-09-05T12:23:54.931Z,10.80
2023-09-05T12:26:03.239Z,7.38
2023-09-05T12:28:22.518Z,8.02
2023-09-05T12:30:33.529Z,12.00
2023-09-05T12:32:42.216Z,13.90
2023-09-05T12:34:49.464Z,9.63
2023-09-05T12:36:56.439Z,9.30
2023-09-05T12:39:02.250Z,10.20
2023-09-05T12:41:09.215Z,11.50
2023-09-05T12:43:17.026Z,9.13
2023-09-05T12:45:24.114Z,16.67
2023-09-05T12:47:32.034Z,12.48
2023-09-05T12:49:40.874Z,15.20
2023-09-05T12:51:48.213Z,14.93
2023-09-05T12:53:55.697Z,12.93
2023-09-05T12:56:03.088Z,13.18
2023-09-05T12:58:11.816Z,12.55
2023-09-05T13:00:20.011Z,15.35
2023-09-05T13:02:26.954Z,14.60
2023-09-05T13:04:34.147Z,14.30
2023-09-05T13:06:45.852Z,14.38
2023-09-05T13:08:53.341Z,16.20
2023-09-05T13:11:00.316Z,11.63
2023-09-05T13:13:09.241Z,11.82
2023-09-05T13:15:16.323Z,12.93
2023-09-05T13:17:22.526Z,17.38
2023-09-05T13:19:29.657Z,13.15
2023-09-05T13:21:37.094Z,14.65
2023-09-05T13:23:45.771Z,10.93
2023-09-05T13:25:53.787Z,11.60
2023-09-05T13:28:00.840Z,12.80
2023-09-05T13:30:08.740Z,11.52
2023-09-05T13:32:17.405Z,13.25
2023-09-05T13:34:25.067Z,12.07
2023-09-05T13:36:32.174Z,17.48
2023-09-05T13:38:40.810Z,14.02
2023-09-05T13:40:48.286Z,13.73
2023-09-05T13:42:55.619Z,15.82
2023-09-05T13:45:02.648Z,13.25
2023-09-05T13:47:09.981Z,14.68
2023-09-05T13:49:17.062Z,12.50
2023-09-05T13:51:25.578Z,14.10
2023-09-05T13:53:32.549Z,14.40
2023-09-05T13:55:40.039Z,13.43
2023-09-05T13:57:51.239Z,12.77
2023-09-05T13:59:58.553Z,13.82
2023-09-05T14:02:05.620Z,13.18
2023-09-05T14:04:12.889Z,11.35
2023-09-05T14:06:19.960Z,12.43
2023-09-05T14:08:27.367Z,15.35
2023-09-05T14:10:34.609Z,14.77
2023-09-05T14:12:41.866Z,12.65
2023-09-05T14:14:50.620Z,15.23
2023-09-05T14:16:58.001Z,15.88
2023-09-05T14:19:04.987Z,13.80
2023-09-05T14:21:10.967Z,15.75
2023-09-05T14:23:17.857Z,16.98
2023-09-05T14:25:25.139Z,13.43
2023-09-05T14:27:32.106Z,12.55
2023-09-05T14:29:39.354Z,14.05
2023-09-05T14:31:48.301Z,15.07
2023-09-05T14:33:55.704Z,14.10
2023-09-05T14:36:03.046Z,14.00
2023-09-05T14:38:10.232Z,20.48
2023-09-05T14:40:17.309Z,14.75
2023-09-05T14:42:24.795Z,15.68
2023-09-05T14:44:31.822Z,15.55
2023-09-05T14:46:39.150Z,16.52
2023-09-05T14:48:48.096Z,17.20
2023-09-05T14:50:55.466Z,16.50
2023-09-05T14:53:03.420Z,14.35
2023-09-05T14:55:12.287Z,15.18
2023-09-05T14:57:22.015Z,19.48
2023-09-05T14:59:29.465Z,18.55
2023-09-05T15:01:36.806Z,13.25
2023-09-05T15:03:45.311Z,14.60
2023-09-05T15:05:54.544Z,17.38
2023-09-05T15:08:01.992Z,17.83
2023-09-05T15:10:10.381Z,14.63
2023-09-05T15:12:17.772Z,19.58
2023-09-05T15:14:23.423Z,16.33
2023-09-05T15:16:31.406Z,18.23
2023-09-05T15:18:39.533Z,15.60
2023-09-05T15:20:47.328Z,13.93
2023-09-05T15:22:55.892Z,15.43
2023-09-05T15:25:13.463Z,16.35
2023-09-05T15:27:20.569Z,14.50
2023-09-05T15:29:27.958Z,17.23
2023-09-05T15:31:34.883Z,18.50
2023-09-05T15:33:42.197Z,16.65
2023-09-05T15:35:49.424Z,16.30
2023-09-05T15:37:58.601Z,20.30
2023-09-05T15:40:06.557Z,19.60
2023-09-05T15:42:13.711Z,17.63
2023-09-05T15:44:20.607Z,20.55
2023-09-05T15:46:27.830Z,21.50
2023-09-05T15:48:34.934Z,21.77
2023-09-05T15:50:44.861Z,20.77
2023-09-05T15:52:51.845Z,20.13
2023-09-05T15:55:00.819Z,18.17
2023-09-05T15:57:08.057Z,17.10
2023-09-05T15:59:15.416Z,21.55
2023-09-05T16:01:22.370Z,18.52
2023-09-05T16:03:29.836Z,20.52
2023-09-05T16:05:36.782Z,25.00
2023-09-05T16:07:44.525Z,20.10
2023-09-05T16:09:50.030Z,19.27
2023-09-05T16:11:59.915Z,35.05
2023-09-05T16:14:07.163Z,28.83
2023-09-05T16:16:17.707Z,21.45
2023-09-05T16:18:24.776Z,25.80
2023-09-05T16:20:38.965Z,20.30
2023-09-05T16:22:53.586Z,20.50
2023-09-05T16:25:02.100Z,20.17
2023-09-05T16:27:11.395Z,20.05
2023-09-05T16:29:18.874Z,19.88
2023-09-05T16:31:25.856Z,28.38
2023-09-05T16:33:33.048Z,27.00
2023-09-05T16:35:39.954Z,17.60
2023-09-05T16:37:47.346Z,19.10
2023-09-05T16:39:54.419Z,18.63
2023-09-05T16:42:02.735Z,19.52
2023-09-05T16:44:11.595Z,20.23
2023-09-05T16:46:19.606Z,20.17
2023-09-05T16:48:27.031Z,22.02
2023-09-05T16:50:36.523Z,21.00
2023-09-05T16:52:43.968Z,18.38
2023-09-05T16:54:51.265Z,20.55
2023-09-05T16:56:58.217Z,20.98
2023-09-05T16:59:05.403Z,19.90
2023-09-05T17:01:13.349Z,21.63
2023-09-05T17:03:20.515Z,22.08
2023-09-05T17:05:27.610Z,21.55
2023-09-05T17:07:34.888Z,22.45
2023-09-05T17:09:41.924Z,23.45
2023-09-05T17:11:50.743Z,23.33
2023-09-05T17:13:57.878Z,21.25
2023-09-05T17:16:05.151Z,22.40
2023-09-05T17:18:14.477Z,23.70
2023-09-05T17:20:22.183Z,23.08
2023-09-05T17:22:29.057Z,20.70
2023-09-05T17:24:36.366Z,17.38
2023-09-05T17:26:43.318Z,20.42
2023-09-05T17:28:50.557Z,16.00
2023-09-05T17:30:57.690Z,16.90
2023-09-05T17:33:05.219Z,14.07
2023-09-05T17:35:14.966Z,17.23
2023-09-05T17:37:21.889Z,11.13
2023-09-05T17:39:28.846Z,13.45
2023-09-05T17:41:36.048Z,13.93
2023-09-05T17:43:43.133Z,14.95
2023-09-05T17:45:50.509Z,11.05
2023-09-05T17:47:58.022Z,10.32
2023-09-05T17:50:05.237Z,12.65
2023-09-05T17:52:14.054Z,9.82
2023-09-05T17:54:21.587Z,9.25
2023-09-05T17:56:28.525Z,9.88
2023-09-05T17:58:35.750Z,13.25
2023-09-05T18:00:42.816Z,12.65
2023-09-05T18:02:51.440Z,10.43
2023-09-05T18:04:58.210Z,9.65
2023-09-05T18:07:05.302Z,10.02
2023-09-05T18:09:13.948Z,14.30
2023-09-05T18:11:21.512Z,12.57
2023-09-05T18:13:28.995Z,11.80
2023-09-05T18:15:36.404Z,9.60
2023-09-05T18:17:42.027Z,11.05
2023-09-05T18:19:49.984Z,10.95
2023-09-05T18:21:56.955Z,11.40
2023-09-05T18:24:04.437Z,9.77
2023-09-05T18:26:14.193Z,13.15
2023-09-05T18:28:21.465Z,11.25
2023-09-05T18:30:28.361Z,11.15
2023-09-05T18:32:35.674Z,12.57
2023-09-05T18:34:44.219Z,12.20
2023-09-05T18:36:51.269Z,10.10
2023-09-05T18:38:58.194Z,10.55
2023-09-05T18:41:04.079Z,9.23
2023-09-05T18:43:12.760Z,11.15
2023-09-05T18:45:20.036Z,11.20
2023-09-05T18:47:27.074Z,11.30
2023-09-05T18:49:35.386Z,11.15
2023-09-05T18:51:42.369Z,10.65
2023-09-05T18:53:49.745Z,10.18
2023-09-05T18:55:55.365Z,12.77
2023-09-05T18:58:03.031Z,11.77
2023-09-05T19:00:13.870Z,10.48
2023-09-05T19:02:21.198Z,9.20
2023-09-05T19:04:28.651Z,8.23
2023-09-05T19:06:36.088Z,9.95
2023-09-05T19:08:45.957Z,11.57
2023-09-05T19:10:53.658Z,11.18
2023-09-05T19:13:04.772Z,9.95
2023-09-05T19:15:14.691Z,9.52
2023-09-05T19:17:22.260Z,10.82
2023-09-05T19:19:29.342Z,11.05
2023-09-05T19:21:36.759Z,9.38
2023-09-05T19:23:44.424Z,9.23
2023-09-05T19:25:51.599Z,11.18
2023-09-05T19:27:58.630Z,9.55
2023-09-05T19:30:05.918Z,9.30
2023-09-05T19:32:14.731Z,8.50
2023-09-05T19:34:22.076Z,8.35
2023-09-05T19:36:29.064Z,6.78
2023-09-05T19:38:36.333Z,5.03
2023-09-05T19:40:43.261Z,8.20
2023-09-05T19:42:50.525Z,5.00
2023-09-05T19:44:57.569Z,7.50
2023-09-05T19:47:04.754Z,5.45
2023-09-05T19:49:13.622Z,3.03
2023-09-05T19:51:21.096Z,3.35
2023-09-05T19:53:26.814Z,3.55
2023-09-05T19:55:33.895Z,2.75
2023-09-05T19:57:41.538Z,3.35
2023-09-05T19:59:49.173Z,2.25
2023-09-05T20:01:56.172Z,2.78
2023-09-05T20:04:03.478Z,1.33
2023-09-05T20:06:13.425Z,4.20
2023-09-05T20:08:20.648Z,3.20
2023-09-05T20:10:26.318Z,1.80
2023-09-05T20:12:33.537Z,1.50
2023-09-05T20:14:40.452Z,1.13
2023-09-05T20:16:47.656Z,3.35
2023-09-05T20:18:55.897Z,3.13
2023-09-05T20:21:03.598Z,1.52
2023-09-05T20:23:12.581Z,3.60
2023-09-05T20:25:19.812Z,1.10
2023-09-05T20:27:26.805Z,1.38
2023-09-05T20:29:33.862Z,2.72
2023-09-05T20:31:40.877Z,1.17
2023-09-05T20:33:48.092Z,1.83
2023-09-05T20:35:55.865Z,1.55
2023-09-05T20:38:03.202Z,2.85
2023-09-05T20:40:13.458Z,2.08
2023-09-05T20:42:20.969Z,2.72
2023-09-05T20:44:28.024Z,3.83
2023-09-05T20:46:35.444Z,2.90
2023-09-05T20:48:42.760Z,2.28
2023-09-05T20:50:50.132Z,1.63
2023-09-05T20:52:57.005Z,3.30
2023-09-05T20:55:04.283Z,2.70
2023-09-05T20:57:13.067Z,3.47
2023-09-05T20:59:22.236Z,3.83
2023-09-05T21:01:31.057Z,3.35
2023-09-05T21:03:38.238Z,4.47
2023-09-05T21:05:45.270Z,2.80
2023-09-05T21:07:52.470Z,2.72
2023-09-05T21:09:59.643Z,3.30
2023-09-05T21:12:06.871Z,2.10
2023-09-05T21:14:15.991Z,1.50
2023-09-05T21:16:22.960Z,3.55
2023-09-05T21:18:29.400Z,3.25
2023-09-05T21:20:36.716Z,2.22
2023-09-05T21:22:44.409Z,2.28
2023-09-05T21:24:51.512Z,0.95
2023-09-05T21:26:58.828Z,2.75
2023-09-05T21:29:05.858Z,6.30
2023-09-05T21:31:18.391Z,3.92
2023-09-05T21:33:25.596Z,1.38
2023-09-05T21:35:31.650Z,2.53
2023-09-05T21:37:38.839Z,2.60
2023-09-05T21:39:46.375Z,1.38
2023-09-05T21:41:53.349Z,4.97
2023-09-05T21:44:00.847Z,2.67
2023-09-05T21:46:13.929Z,2.33
2023-09-05T21:48:23.221Z,3.10
2023-09-05T21:50:28.808Z,2.80
2023-09-05T21:52:36.323Z,2.40
2023-09-05T21:54:45.860Z,2.20
2023-09-05T21:56:53.247Z,2.72
2023-09-05T21:59:00.783Z,2.95
2023-09-05T22:01:08.272Z,4.32
2023-09-05T22:03:16.180Z,7.43
2023-09-05T22:05:25.248Z,8.10
2023-09-05T22:07:32.123Z,8.70
2023-09-05T22:09:39.530Z,5.72
2023-09-05T22:11:46.484Z,4.75
2023-09-05T22:13:54.300Z,4.20
2023-09-05T22:16:03.887Z,3.50
2023-09-05T22:18:11.474Z,3.30
2023-09-05T22:20:22.121Z,4.43
2023-09-05T22:22:30.996Z,4.00
2023-09-05T22:24:37.948Z,2.90
2023-09-05T22:26:45.255Z,5.35
2023-09-05T22:28:53.639Z,3.75
2023-09-05T22:31:01.621Z,2.72
2023-09-05T22:33:09.589Z,4.70
2023-09-05T22:35:17.619Z,3.03
2023-09-05T22:37:24.957Z,3.53
2023-09-05T22:39:34.267Z,2.30
2023-09-05T22:41:41.365Z,1.30
2023-09-05T22:43:48.345Z,1.73
2023-09-05T22:45:55.393Z,1.52
2023-09-05T22:48:02.747Z,1.67
2023-09-05T22:50:10.515Z,2.78
2023-09-05T22:52:19.062Z,3.83
2023-09-05T22:54:25.901Z,2.72
2023-09-05T22:56:35.066Z,4.93
2023-09-05T22:58:42.298Z,5.00
2023-09-05T23:00:51.094Z,3.80
2023-09-05T23:02:56.774Z,3.15
2023-09-05T23:05:04.151Z,4.47
2023-09-05T23:07:11.592Z,3.08
2023-09-05T23:09:19.151Z,4.25
2023-09-05T23:11:27.081Z,4.50
2023-09-05T23:13:38.645Z,3.17
2023-09-05T23:15:46.085Z,4.75
2023-09-05T23:17:53.758Z,2.83
2023-09-05T23:20:01.804Z,4.20
2023-09-05T23:22:11.177Z,4.03
2023-09-05T23:24:18.892Z,2.08
2023-09-05T23:26:26.105Z,3.35
2023-09-05T23:28:35.234Z,3.13
2023-09-05T23:30:42.020Z,3.65
2023-09-05T23:32:49.486Z,3.63
2023-09-05T23:34:56.832Z,3.97
2023-09-05T23:37:04.521Z,3.50
2023-09-05T23:39:13.144Z,6.65
2023-09-05T23:41:23.397Z,3.95
2023-09-05T23:43:31.135Z,2.30
2023-09-05T23:45:40.468Z,2.75
2023-09-05T23:47:50.426Z,16.23
2023-09-05T23:49:57.803Z,12.88
2023-09-05T23:52:06.108Z,3.45
2023-09-05T23:54:13.708Z,7.97
2023-09-05T23:56:20.990Z,5.82
2023-09-05T23:58:28.475Z,4.40
